6R5 weather

Public forecast

Using degrees Fahrenheit for public forecast. Weather courtesy of forecast.io.

Closest aviation weather report (METAR) to Alvin Airpark

Closest report is Pearland Regional Airport, 6.8 nm (12.6 km) NNE. Retrieved 2020/08/13 15:53 UTC (58 minutes ago):

KLVJ 131553Z AUTO VRB05KT 10SM FEW028 32/23 A3003 RMK AO2 SLP166 T03170228

Closest aviation forecast (TAF) to Alvin Airpark

Closest forecast is Ellington Airport, 13.4 nm (24.8 km) NNE. Retrieved 2020/08/13 12:09 UTC (5 hours ago):

TAF KEFD 131200Z 1312/1418 17006KT 9999 FEW020 QNH2994INS BECMG 1320/1321 15010G15KT 9999 SCT060 QNH2989INS BECMG 1402/1403 18009KT 9999 SKC QNH2996INS TX36/1319Z TN26/1410Z